Terminal Aerodrome Forecast
Issued by NWS

Home | Current Version | Previous Version | Text Only | Print | Product List | Glossary On
Versions: 1 2 3 4 5 6 7 8 9 10 11 12 13 14 15
000
FTUS44 KJAN 252320
TAFGTR
TAF
KGTR 252320Z 2600/2624 34004KT P6SM SCT090
     FM260600 15005KT P6SM VCSH BKN050
     FM260900 30008KT 5SM -SHRA BR OVC015
     FM261400 31010G20KT P6SM VCSH BKN012
     FM262300 33011KT P6SM BKN050=

USA.gov is the U.S. government's official web portal to all federal, state and local government web resources and services.